sensor_id;sensor_type;location;lat;lon;timestamp;P1;durP1;ratioP1;P2;durP2;ratioP2
66342;SDS011;53144;51.524;5.080;2022-12-07T00:04:05;10.65;;;6.90;;
66342;SDS011;53144;51.524;5.080;2022-12-07T00:09:54;12.05;;;7.45;;
66342;SDS011;53144;51.524;5.080;2022-12-07T00:35:57;9.68;;;7.10;;
66342;SDS011;53144;51.524;5.080;2022-12-07T00:38:35;9.07;;;6.47;;
66342;SDS011;53144;51.524;5.080;2022-12-07T00:44:57;17.90;;;7.95;;
66342;SDS011;53144;51.524;5.080;2022-12-07T00:50:51;11.45;;;7.28;;
66342;SDS011;53144;51.524;5.080;2022-12-07T01:00:16;11.90;;;7.18;;
66342;SDS011;53144;51.524;5.080;2022-12-07T01:09:50;13.65;;;7.63;;
66342;SDS011;53144;51.524;5.080;2022-12-07T01:12:18;10.00;;;7.32;;
66342;SDS011;53144;51.524;5.080;2022-12-07T01:15:00;11.70;;;7.25;;
66342;SDS011;53144;51.524;5.080;2022-12-07T01:20:58;13.80;;;7.07;;
66342;SDS011;53144;51.524;5.080;2022-12-07T01:27:28;10.60;;;7.93;;
66342;SDS011;53144;51.524;5.080;2022-12-07T01:33:28;11.45;;;9.27;;
66342;SDS011;53144;51.524;5.080;2022-12-07T01:39:28;12.45;;;8.40;;
66342;SDS011;53144;51.524;5.080;2022-12-07T01:42:03;14.82;;;7.93;;
66342;SDS011;53144;51.524;5.080;2022-12-07T01:45:14;10.30;;;7.57;;
66342;SDS011;53144;51.524;5.080;2022-12-07T01:47:40;11.13;;;7.25;;
66342;SDS011;53144;51.524;5.080;2022-12-07T01:50:24;13.68;;;8.18;;
66342;SDS011;53144;51.524;5.080;2022-12-07T01:52:55;12.80;;;7.72;;
66342;SDS011;53144;51.524;5.080;2022-12-07T01:55:40;15.45;;;8.55;;
66342;SDS011;53144;51.524;5.080;2022-12-07T01:58:33;10.95;;;6.55;;
66342;SDS011;53144;51.524;5.080;2022-12-07T02:01:05;13.88;;;7.05;;
66342;SDS011;53144;51.524;5.080;2022-12-07T02:03:36;9.50;;;6.20;;
66342;SDS011;53144;51.524;5.080;2022-12-07T02:09:02;11.80;;;6.28;;
66342;SDS011;53144;51.524;5.080;2022-12-07T02:17:18;9.40;;;6.57;;
66342;SDS011;53144;51.524;5.080;2022-12-07T02:20:10;8.80;;;5.85;;
66342;SDS011;53144;51.524;5.080;2022-12-07T02:31:08;10.68;;;5.53;;
66342;SDS011;53144;51.524;5.080;2022-12-07T02:40:40;11.73;;;8.50;;
66342;SDS011;53144;51.524;5.080;2022-12-07T02:43:17;11.80;;;7.95;;
66342;SDS011;53144;51.524;5.080;2022-12-07T02:46:04;10.35;;;8.23;;
66342;SDS011;53144;51.524;5.080;2022-12-07T02:48:33;15.23;;;8.57;;
66342;SDS011;53144;51.524;5.080;2022-12-07T02:51:00;12.68;;;7.90;;
66342;SDS011;53144;51.524;5.080;2022-12-07T02:53:32;14.45;;;7.35;;
66342;SDS011;53144;51.524;5.080;2022-12-07T03:08:01;13.65;;;6.90;;
66342;SDS011;53144;51.524;5.080;2022-12-07T03:10:42;13.02;;;6.82;;
66342;SDS011;53144;51.524;5.080;2022-12-07T03:13:41;11.63;;;7.13;;
66342;SDS011;53144;51.524;5.080;2022-12-07T03:16:20;13.73;;;8.05;;
66342;SDS011;53144;51.524;5.080;2022-12-07T03:19:05;12.60;;;7.72;;
66342;SDS011;53144;51.524;5.080;2022-12-07T03:21:37;13.15;;;7.22;;
66342;SDS011;53144;51.524;5.080;2022-12-07T03:24:41;9.20;;;6.80;;
66342;SDS011;53144;51.524;5.080;2022-12-07T03:33:23;8.18;;;6.28;;
66342;SDS011;53144;51.524;5.080;2022-12-07T03:36:20;10.02;;;6.75;;
66342;SDS011;53144;51.524;5.080;2022-12-07T03:39:02;15.57;;;6.88;;
66342;SDS011;53144;51.524;5.080;2022-12-07T03:42:03;10.80;;;6.38;;
66342;SDS011;53144;51.524;5.080;2022-12-07T03:47:40;11.32;;;6.53;;
66342;SDS011;53144;51.524;5.080;2022-12-07T03:53:46;14.50;;;7.10;;
66342;SDS011;53144;51.524;5.080;2022-12-07T03:56:50;16.95;;;7.55;;
66342;SDS011;53144;51.524;5.080;2022-12-07T04:02:39;17.67;;;6.85;;
66342;SDS011;53144;51.524;5.080;2022-12-07T04:05:13;17.35;;;7.18;;
66342;SDS011;53144;51.524;5.080;2022-12-07T04:07:42;12.02;;;6.78;;
66342;SDS011;53144;51.524;5.080;2022-12-07T04:10:41;12.57;;;6.88;;
66342;SDS011;53144;51.524;5.080;2022-12-07T04:13:27;11.38;;;6.63;;
66342;SDS011;53144;51.524;5.080;2022-12-07T04:18:56;14.95;;;8.27;;
66342;SDS011;53144;51.524;5.080;2022-12-07T04:21:24;11.60;;;7.33;;
66342;SDS011;53144;51.524;5.080;2022-12-07T04:23:49;12.15;;;7.63;;
66342;SDS011;53144;51.524;5.080;2022-12-07T04:26:33;13.05;;;7.60;;
66342;SDS011;53144;51.524;5.080;2022-12-07T04:29:08;18.95;;;8.77;;
66342;SDS011;53144;51.524;5.080;2022-12-07T04:34:51;16.80;;;7.65;;
66342;SDS011;53144;51.524;5.080;2022-12-07T04:39:55;9.05;;;6.60;;
66342;SDS011;53144;51.524;5.080;2022-12-07T04:42:33;15.73;;;6.43;;
66342;SDS011;53144;51.524;5.080;2022-12-07T04:45:06;11.52;;;7.07;;
66342;SDS011;53144;51.524;5.080;2022-12-07T04:54:49;13.93;;;6.45;;
66342;SDS011;53144;51.524;5.080;2022-12-07T04:57:36;14.13;;;5.22;;
66342;SDS011;53144;51.524;5.080;2022-12-07T05:03:24;9.85;;;4.70;;
66342;SDS011;53144;51.524;5.080;2022-12-07T05:06:19;13.57;;;5.13;;
66342;SDS011;53144;51.524;5.080;2022-12-07T05:09:32;7.10;;;4.50;;
66342;SDS011;53144;51.524;5.080;2022-12-07T05:11:59;8.50;;;4.55;;
66342;SDS011;53144;51.524;5.080;2022-12-07T06:13:58;7.15;;;4.85;;
66342;SDS011;53144;51.524;5.080;2022-12-07T06:16:47;5.60;;;4.40;;
66342;SDS011;53144;51.524;5.080;2022-12-07T06:22:21;11.05;;;5.28;;
66342;SDS011;53144;51.524;5.080;2022-12-07T06:24:50;7.93;;;5.93;;
66342;SDS011;53144;51.524;5.080;2022-12-07T06:40:41;9.48;;;5.38;;
66342;SDS011;53144;51.524;5.080;2022-12-07T06:43:10;10.43;;;5.22;;
66342;SDS011;53144;51.524;5.080;2022-12-07T06:46:06;7.75;;;5.03;;
66342;SDS011;53144;51.524;5.080;2022-12-07T06:55:27;8.02;;;4.75;;
66342;SDS011;53144;51.524;5.080;2022-12-07T07:01:07;7.85;;;5.30;;
66342;SDS011;53144;51.524;5.080;2022-12-07T07:13:32;6.25;;;5.43;;
66342;SDS011;53144;51.524;5.080;2022-12-07T07:18:57;9.10;;;5.53;;
66342;SDS011;53144;51.524;5.080;2022-12-07T07:21:25;11.73;;;5.80;;
66342;SDS011;53144;51.524;5.080;2022-12-07T07:24:15;13.10;;;6.50;;
66342;SDS011;53144;51.524;5.080;2022-12-07T07:33:25;13.35;;;6.90;;
66342;SDS011;53144;51.524;5.080;2022-12-07T07:42:28;9.63;;;6.60;;
66342;SDS011;53144;51.524;5.080;2022-12-07T07:47:55;13.65;;;7.55;;
66342;SDS011;53144;51.524;5.080;2022-12-07T07:50:21;10.32;;;7.57;;
66342;SDS011;53144;51.524;5.080;2022-12-07T07:53:16;10.13;;;7.20;;
66342;SDS011;53144;51.524;5.080;2022-12-07T07:58:38;16.60;;;8.50;;
66342;SDS011;53144;51.524;5.080;2022-12-07T08:01:27;13.57;;;7.88;;
66342;SDS011;53144;51.524;5.080;2022-12-07T08:04:09;13.20;;;8.20;;
66342;SDS011;53144;51.524;5.080;2022-12-07T08:06:34;12.45;;;7.35;;
66342;SDS011;53144;51.524;5.080;2022-12-07T08:09:00;15.60;;;8.77;;
66342;SDS011;53144;51.524;5.080;2022-12-07T08:11:36;10.93;;;7.70;;
66342;SDS011;53144;51.524;5.080;2022-12-07T08:17:15;15.63;;;9.35;;
66342;SDS011;53144;51.524;5.080;2022-12-07T08:19:55;14.80;;;9.07;;
66342;SDS011;53144;51.524;5.080;2022-12-07T08:22:21;15.23;;;11.55;;
66342;SDS011;53144;51.524;5.080;2022-12-07T08:34:49;11.27;;;6.10;;
66342;SDS011;53144;51.524;5.080;2022-12-07T08:37:17;14.73;;;6.93;;
66342;SDS011;53144;51.524;5.080;2022-12-07T08:40:01;13.43;;;7.88;;
66342;SDS011;53144;51.524;5.080;2022-12-07T08:42:31;10.85;;;7.70;;
66342;SDS011;53144;51.524;5.080;2022-12-07T08:45:27;16.65;;;8.23;;
66342;SDS011;53144;51.524;5.080;2022-12-07T08:48:09;18.63;;;7.90;;
66342;SDS011;53144;51.524;5.080;2022-12-07T08:50:59;12.50;;;7.15;;
66342;SDS011;53144;51.524;5.080;2022-12-07T08:53:26;8.77;;;6.60;;
66342;SDS011;53144;51.524;5.080;2022-12-07T08:55:56;14.73;;;6.00;;
66342;SDS011;53144;51.524;5.080;2022-12-07T09:01:58;9.57;;;5.78;;
66342;SDS011;53144;51.524;5.080;2022-12-07T09:07:27;9.43;;;5.70;;
66342;SDS011;53144;51.524;5.080;2022-12-07T09:20:06;12.27;;;5.40;;
66342;SDS011;53144;51.524;5.080;2022-12-07T09:22:38;7.53;;;4.28;;
66342;SDS011;53144;51.524;5.080;2022-12-07T09:25:03;6.82;;;4.68;;
66342;SDS011;53144;51.524;5.080;2022-12-07T09:29:58;8.43;;;4.45;;
66342;SDS011;53144;51.524;5.080;2022-12-07T09:32:31;9.40;;;3.90;;
66342;SDS011;53144;51.524;5.080;2022-12-07T09:34:59;7.80;;;3.78;;
66342;SDS011;53144;51.524;5.080;2022-12-07T09:37:28;9.75;;;3.85;;
66342;SDS011;53144;51.524;5.080;2022-12-07T09:39:53;6.63;;;3.53;;
66342;SDS011;53144;51.524;5.080;2022-12-07T09:42:28;6.85;;;3.28;;
66342;SDS011;53144;51.524;5.080;2022-12-07T09:44:59;5.97;;;2.78;;
66342;SDS011;53144;51.524;5.080;2022-12-07T09:50:06;6.32;;;2.90;;
66342;SDS011;53144;51.524;5.080;2022-12-07T09:52:37;8.47;;;2.77;;
66342;SDS011;53144;51.524;5.080;2022-12-07T09:55:26;5.35;;;3.10;;
66342;SDS011;53144;51.524;5.080;2022-12-07T09:57:54;6.35;;;2.70;;
66342;SDS011;53144;51.524;5.080;2022-12-07T10:02:55;7.68;;;2.60;;
66342;SDS011;53144;51.524;5.080;2022-12-07T10:05:26;9.52;;;3.13;;
66342;SDS011;53144;51.524;5.080;2022-12-07T10:07:58;7.80;;;2.88;;
66342;SDS011;53144;51.524;5.080;2022-12-07T10:10:32;8.00;;;2.65;;
66342;SDS011;53144;51.524;5.080;2022-12-07T10:18:35;9.80;;;2.67;;
66342;SDS011;53144;51.524;5.080;2022-12-07T10:23:29;5.38;;;2.40;;
66342;SDS011;53144;51.524;5.080;2022-12-07T10:25:57;5.05;;;2.47;;
66342;SDS011;53144;51.524;5.080;2022-12-07T10:28:23;5.47;;;2.60;;
66342;SDS011;53144;51.524;5.080;2022-12-07T10:31:02;6.22;;;2.95;;
66342;SDS011;53144;51.524;5.080;2022-12-07T10:39:29;6.50;;;2.88;;
66342;SDS011;53144;51.524;5.080;2022-12-07T10:41:52;4.55;;;2.10;;
66342;SDS011;53144;51.524;5.080;2022-12-07T10:44:23;7.10;;;2.83;;
66342;SDS011;53144;51.524;5.080;2022-12-07T10:47:18;7.68;;;2.45;;
66342;SDS011;53144;51.524;5.080;2022-12-07T11:00:48;7.15;;;2.58;;
66342;SDS011;53144;51.524;5.080;2022-12-07T11:03:39;8.48;;;2.25;;
66342;SDS011;53144;51.524;5.080;2022-12-07T11:17:05;5.03;;;2.47;;
66342;SDS011;53144;51.524;5.080;2022-12-07T11:22:35;4.80;;;2.13;;
66342;SDS011;53144;51.524;5.080;2022-12-07T11:25:39;3.85;;;2.00;;
66342;SDS011;53144;51.524;5.080;2022-12-07T11:28:34;7.43;;;1.75;;
66342;SDS011;53144;51.524;5.080;2022-12-07T11:31:29;6.57;;;2.38;;
66342;SDS011;53144;51.524;5.080;2022-12-07T11:37:28;8.38;;;2.22;;
66342;SDS011;53144;51.524;5.080;2022-12-07T11:40:00;7.25;;;2.00;;
66342;SDS011;53144;51.524;5.080;2022-12-07T11:42:44;8.35;;;2.45;;
66342;SDS011;53144;51.524;5.080;2022-12-07T11:45:40;7.97;;;2.17;;
66342;SDS011;53144;51.524;5.080;2022-12-07T11:48:40;5.88;;;1.80;;
66342;SDS011;53144;51.524;5.080;2022-12-07T11:51:10;4.15;;;2.20;;
66342;SDS011;53144;51.524;5.080;2022-12-07T11:53:48;5.25;;;1.83;;
66342;SDS011;53144;51.524;5.080;2022-12-07T11:56:22;6.60;;;2.38;;
66342;SDS011;53144;51.524;5.080;2022-12-07T12:01:39;5.07;;;2.30;;
66342;SDS011;53144;51.524;5.080;2022-12-07T12:04:32;5.63;;;2.40;;
66342;SDS011;53144;51.524;5.080;2022-12-07T12:07:07;7.50;;;2.63;;
66342;SDS011;53144;51.524;5.080;2022-12-07T12:09:34;7.15;;;2.90;;
66342;SDS011;53144;51.524;5.080;2022-12-07T12:12:11;9.93;;;2.22;;
66342;SDS011;53144;51.524;5.080;2022-12-07T12:20:46;6.28;;;1.98;;
66342;SDS011;53144;51.524;5.080;2022-12-07T12:26:06;9.10;;;1.90;;
66342;SDS011;53144;51.524;5.080;2022-12-07T12:28:57;3.35;;;1.58;;
66342;SDS011;53144;51.524;5.080;2022-12-07T12:31:31;3.85;;;1.95;;
66342;SDS011;53144;51.524;5.080;2022-12-07T12:37:13;4.75;;;1.73;;
66342;SDS011;53144;51.524;5.080;2022-12-07T12:45:36;4.70;;;1.65;;
66342;SDS011;53144;51.524;5.080;2022-12-07T12:48:02;4.32;;;1.70;;
66342;SDS011;53144;51.524;5.080;2022-12-07T12:50:46;3.33;;;1.50;;
66342;SDS011;53144;51.524;5.080;2022-12-07T12:53:26;7.45;;;1.63;;
66342;SDS011;53144;51.524;5.080;2022-12-07T12:56:13;4.82;;;1.73;;
66342;SDS011;53144;51.524;5.080;2022-12-07T12:58:42;7.22;;;1.85;;
66342;SDS011;53144;51.524;5.080;2022-12-07T13:04:01;3.85;;;1.48;;
66342;SDS011;53144;51.524;5.080;2022-12-07T13:08:59;11.10;;;2.10;;
66342;SDS011;53144;51.524;5.080;2022-12-07T13:30:22;4.03;;;1.58;;
66342;SDS011;53144;51.524;5.080;2022-12-07T13:32:52;7.40;;;1.60;;
66342;SDS011;53144;51.524;5.080;2022-12-07T13:35:54;5.53;;;1.80;;
66342;SDS011;53144;51.524;5.080;2022-12-07T13:38:35;6.10;;;2.15;;
66342;SDS011;53144;51.524;5.080;2022-12-07T13:47:17;5.68;;;2.00;;
66342;SDS011;53144;51.524;5.080;2022-12-07T13:49:54;5.53;;;1.50;;
66342;SDS011;53144;51.524;5.080;2022-12-07T13:55:13;3.10;;;1.75;;
66342;SDS011;53144;51.524;5.080;2022-12-07T13:57:41;4.88;;;1.70;;
66342;SDS011;53144;51.524;5.080;2022-12-07T14:00:24;6.55;;;1.98;;
66342;SDS011;53144;51.524;5.080;2022-12-07T14:02:59;2.97;;;1.58;;
66342;SDS011;53144;51.524;5.080;2022-12-07T14:05:28;3.67;;;1.70;;
66342;SDS011;53144;51.524;5.080;2022-12-07T14:08:02;4.03;;;2.03;;
66342;SDS011;53144;51.524;5.080;2022-12-07T14:10:40;3.70;;;1.50;;
66342;SDS011;53144;51.524;5.080;2022-12-07T14:13:38;5.38;;;1.70;;
66342;SDS011;53144;51.524;5.080;2022-12-07T14:16:29;3.63;;;1.58;;
66342;SDS011;53144;51.524;5.080;2022-12-07T14:18:57;2.72;;;1.60;;
66342;SDS011;53144;51.524;5.080;2022-12-07T14:21:36;4.00;;;1.63;;
66342;SDS011;53144;51.524;5.080;2022-12-07T14:27:04;3.45;;;1.80;;
66342;SDS011;53144;51.524;5.080;2022-12-07T14:29:54;6.75;;;1.85;;
66342;SDS011;53144;51.524;5.080;2022-12-07T14:32:28;4.85;;;2.10;;
66342;SDS011;53144;51.524;5.080;2022-12-07T14:35:03;4.38;;;2.00;;
66342;SDS011;53144;51.524;5.080;2022-12-07T14:37:29;4.55;;;2.55;;
66342;SDS011;53144;51.524;5.080;2022-12-07T14:39:58;5.80;;;2.80;;
66342;SDS011;53144;51.524;5.080;2022-12-07T14:42:24;3.47;;;3.17;;
66342;SDS011;53144;51.524;5.080;2022-12-07T14:44:56;6.13;;;3.42;;
66342;SDS011;53144;51.524;5.080;2022-12-07T14:47:23;4.97;;;2.90;;
66342;SDS011;53144;51.524;5.080;2022-12-07T14:49:49;4.90;;;3.22;;
66342;SDS011;53144;51.524;5.080;2022-12-07T14:52:23;5.25;;;3.65;;
66342;SDS011;53144;51.524;5.080;2022-12-07T14:54:52;4.50;;;3.80;;
66342;SDS011;53144;51.524;5.080;2022-12-07T14:57:17;6.93;;;4.00;;
66342;SDS011;53144;51.524;5.080;2022-12-07T14:59:43;5.45;;;4.47;;
66342;SDS011;53144;51.524;5.080;2022-12-07T15:02:16;8.45;;;4.75;;
66342;SDS011;53144;51.524;5.080;2022-12-07T15:04:41;5.05;;;4.10;;
66342;SDS011;53144;51.524;5.080;2022-12-07T15:07:13;6.15;;;4.07;;
66342;SDS011;53144;51.524;5.080;2022-12-07T15:09:43;5.88;;;4.00;;
66342;SDS011;53144;51.524;5.080;2022-12-07T15:12:08;5.72;;;3.85;;
66342;SDS011;53144;51.524;5.080;2022-12-07T15:14:34;6.25;;;4.38;;
66342;SDS011;53144;51.524;5.080;2022-12-07T15:17:00;5.30;;;3.55;;
66342;SDS011;53144;51.524;5.080;2022-12-07T15:19:25;5.63;;;3.50;;
66342;SDS011;53144;51.524;5.080;2022-12-07T15:21:52;4.97;;;3.35;;
66342;SDS011;53144;51.524;5.080;2022-12-07T15:24:20;6.20;;;3.30;;
66342;SDS011;53144;51.524;5.080;2022-12-07T15:26:46;5.55;;;2.95;;
66342;SDS011;53144;51.524;5.080;2022-12-07T15:29:12;4.57;;;2.97;;
66342;SDS011;53144;51.524;5.080;2022-12-07T15:31:39;4.63;;;3.30;;
66342;SDS011;53144;51.524;5.080;2022-12-07T15:34:08;4.15;;;2.75;;
66342;SDS011;53144;51.524;5.080;2022-12-07T15:36:34;5.53;;;2.42;;
66342;SDS011;53144;51.524;5.080;2022-12-07T15:39:00;4.03;;;1.95;;
66342;SDS011;53144;51.524;5.080;2022-12-07T15:41:28;4.70;;;2.70;;
66342;SDS011;53144;51.524;5.080;2022-12-07T15:43:57;3.65;;;2.17;;
66342;SDS011;53144;51.524;5.080;2022-12-07T15:46:41;4.43;;;2.83;;
66342;SDS011;53144;51.524;5.080;2022-12-07T15:49:14;5.78;;;2.60;;
66342;SDS011;53144;51.524;5.080;2022-12-07T15:51:41;6.13;;;2.00;;
66342;SDS011;53144;51.524;5.080;2022-12-07T15:54:11;4.55;;;2.40;;
66342;SDS011;53144;51.524;5.080;2022-12-07T15:56:40;5.57;;;2.67;;
66342;SDS011;53144;51.524;5.080;2022-12-07T15:59:06;5.75;;;3.08;;
66342;SDS011;53144;51.524;5.080;2022-12-07T16:01:31;4.78;;;2.40;;
66342;SDS011;53144;51.524;5.080;2022-12-07T16:03:57;4.78;;;2.65;;
66342;SDS011;53144;51.524;5.080;2022-12-07T16:06:33;6.18;;;3.08;;
66342;SDS011;53144;51.524;5.080;2022-12-07T16:08:58;4.28;;;3.05;;
66342;SDS011;53144;51.524;5.080;2022-12-07T16:11:24;5.15;;;2.83;;
66342;SDS011;53144;51.524;5.080;2022-12-07T16:13:50;5.22;;;2.80;;
66342;SDS011;53144;51.524;5.080;2022-12-07T16:16:16;4.40;;;2.70;;
66342;SDS011;53144;51.524;5.080;2022-12-07T16:18:43;5.63;;;2.05;;
66342;SDS011;53144;51.524;5.080;2022-12-07T16:21:10;4.10;;;2.10;;
66342;SDS011;53144;51.524;5.080;2022-12-07T16:23:35;4.22;;;2.22;;
66342;SDS011;53144;51.524;5.080;2022-12-07T16:26:10;5.63;;;2.40;;
66342;SDS011;53144;51.524;5.080;2022-12-07T16:28:40;4.88;;;2.70;;
66342;SDS011;53144;51.524;5.080;2022-12-07T16:31:13;4.43;;;2.13;;
66342;SDS011;53144;51.524;5.080;2022-12-07T16:33:43;6.97;;;2.72;;
66342;SDS011;53144;51.524;5.080;2022-12-07T16:36:17;4.50;;;2.88;;
66342;SDS011;53144;51.524;5.080;2022-12-07T16:41:34;5.75;;;2.50;;
66342;SDS011;53144;51.524;5.080;2022-12-07T16:44:05;6.20;;;2.70;;
66342;SDS011;53144;51.524;5.080;2022-12-07T16:46:32;8.02;;;3.33;;
66342;SDS011;53144;51.524;5.080;2022-12-07T16:48:59;4.30;;;2.78;;
66342;SDS011;53144;51.524;5.080;2022-12-07T16:51:28;3.75;;;2.78;;
66342;SDS011;53144;51.524;5.080;2022-12-07T16:54:02;8.48;;;3.20;;
66342;SDS011;53144;51.524;5.080;2022-12-07T16:56:27;6.30;;;4.07;;
66342;SDS011;53144;51.524;5.080;2022-12-07T16:58:57;7.25;;;2.85;;
66342;SDS011;53144;51.524;5.080;2022-12-07T17:01:26;3.88;;;2.65;;
66342;SDS011;53144;51.524;5.080;2022-12-07T17:03:57;7.07;;;3.03;;
66342;SDS011;53144;51.524;5.080;2022-12-07T17:06:45;10.88;;;3.38;;
66342;SDS011;53144;51.524;5.080;2022-12-07T17:09:11;4.55;;;2.90;;
66342;SDS011;53144;51.524;5.080;2022-12-07T17:11:37;6.95;;;3.58;;
66342;SDS011;53144;51.524;5.080;2022-12-07T17:14:02;7.30;;;2.90;;
66342;SDS011;53144;51.524;5.080;2022-12-07T17:16:46;7.18;;;3.63;;
66342;SDS011;53144;51.524;5.080;2022-12-07T17:19:33;9.85;;;3.42;;
66342;SDS011;53144;51.524;5.080;2022-12-07T17:21:58;7.18;;;3.70;;
66342;SDS011;53144;51.524;5.080;2022-12-07T17:24:27;6.35;;;3.30;;
66342;SDS011;53144;51.524;5.080;2022-12-07T17:27:01;7.35;;;3.78;;
66342;SDS011;53144;51.524;5.080;2022-12-07T17:29:35;6.57;;;3.53;;
66342;SDS011;53144;51.524;5.080;2022-12-07T17:34:58;6.38;;;2.70;;
66342;SDS011;53144;51.524;5.080;2022-12-07T17:37:27;5.35;;;2.70;;
66342;SDS011;53144;51.524;5.080;2022-12-07T17:39:53;9.35;;;2.80;;
66342;SDS011;53144;51.524;5.080;2022-12-07T17:42:22;5.60;;;2.75;;
66342;SDS011;53144;51.524;5.080;2022-12-07T17:45:04;8.88;;;2.97;;
66342;SDS011;53144;51.524;5.080;2022-12-07T17:47:32;7.10;;;2.60;;
66342;SDS011;53144;51.524;5.080;2022-12-07T17:49:57;6.20;;;2.53;;
66342;SDS011;53144;51.524;5.080;2022-12-07T17:52:26;5.57;;;2.15;;
66342;SDS011;53144;51.524;5.080;2022-12-07T17:55:10;5.55;;;2.30;;
66342;SDS011;53144;51.524;5.080;2022-12-07T17:57:35;4.72;;;2.25;;
66342;SDS011;53144;51.524;5.080;2022-12-07T18:00:01;5.30;;;2.83;;
66342;SDS011;53144;51.524;5.080;2022-12-07T18:02:28;9.98;;;3.17;;
66342;SDS011;53144;51.524;5.080;2022-12-07T18:04:56;7.40;;;2.90;;
66342;SDS011;53144;51.524;5.080;2022-12-07T18:07:21;6.55;;;3.10;;
66342;SDS011;53144;51.524;5.080;2022-12-07T18:09:47;5.45;;;3.00;;
66342;SDS011;53144;51.524;5.080;2022-12-07T18:12:12;5.63;;;3.10;;
66342;SDS011;53144;51.524;5.080;2022-12-07T18:14:38;5.47;;;2.78;;
66342;SDS011;53144;51.524;5.080;2022-12-07T18:17:03;6.75;;;2.67;;
66342;SDS011;53144;51.524;5.080;2022-12-07T18:19:35;5.88;;;2.63;;
66342;SDS011;53144;51.524;5.080;2022-12-07T18:22:02;5.00;;;3.08;;
66342;SDS011;53144;51.524;5.080;2022-12-07T18:24:34;4.15;;;3.08;;
66342;SDS011;53144;51.524;5.080;2022-12-07T18:26:59;7.07;;;2.33;;
66342;SDS011;53144;51.524;5.080;2022-12-07T18:29:25;6.63;;;2.65;;
66342;SDS011;53144;51.524;5.080;2022-12-07T18:31:50;8.23;;;2.67;;
66342;SDS011;53144;51.524;5.080;2022-12-07T18:34:19;5.32;;;3.00;;
66342;SDS011;53144;51.524;5.080;2022-12-07T18:36:56;4.35;;;2.80;;
66342;SDS011;53144;51.524;5.080;2022-12-07T18:39:24;3.70;;;2.72;;
66342;SDS011;53144;51.524;5.080;2022-12-07T18:41:54;8.48;;;3.45;;
66342;SDS011;53144;51.524;5.080;2022-12-07T18:44:22;5.65;;;3.65;;
66342;SDS011;53144;51.524;5.080;2022-12-07T18:46:47;6.03;;;3.85;;
66342;SDS011;53144;51.524;5.080;2022-12-07T18:49:13;6.38;;;3.92;;
66342;SDS011;53144;51.524;5.080;2022-12-07T18:51:43;6.93;;;4.05;;
66342;SDS011;53144;51.524;5.080;2022-12-07T18:54:11;8.85;;;4.25;;
66342;SDS011;53144;51.524;5.080;2022-12-07T18:56:37;7.97;;;4.82;;
66342;SDS011;53144;51.524;5.080;2022-12-07T19:01:48;10.73;;;4.40;;
66342;SDS011;53144;51.524;5.080;2022-12-07T19:04:17;10.60;;;4.55;;
66342;SDS011;53144;51.524;5.080;2022-12-07T19:06:43;6.00;;;3.90;;
66342;SDS011;53144;51.524;5.080;2022-12-07T19:09:10;6.53;;;4.38;;
66342;SDS011;53144;51.524;5.080;2022-12-07T19:11:37;8.93;;;4.93;;
66342;SDS011;53144;51.524;5.080;2022-12-07T19:14:17;9.43;;;6.00;;
66342;SDS011;53144;51.524;5.080;2022-12-07T19:16:48;11.02;;;5.90;;
66342;SDS011;53144;51.524;5.080;2022-12-07T19:19:15;6.68;;;3.65;;
66342;SDS011;53144;51.524;5.080;2022-12-07T19:21:42;7.43;;;3.67;;
66342;SDS011;53144;51.524;5.080;2022-12-07T19:24:07;7.95;;;3.70;;
66342;SDS011;53144;51.524;5.080;2022-12-07T19:26:38;5.53;;;3.55;;
66342;SDS011;53144;51.524;5.080;2022-12-07T19:29:04;6.82;;;4.07;;
66342;SDS011;53144;51.524;5.080;2022-12-07T19:31:35;8.75;;;3.85;;
66342;SDS011;53144;51.524;5.080;2022-12-07T19:34:12;7.72;;;4.22;;
66342;SDS011;53144;51.524;5.080;2022-12-07T19:36:41;7.20;;;4.05;;
66342;SDS011;53144;51.524;5.080;2022-12-07T19:39:08;7.43;;;3.78;;
66342;SDS011;53144;51.524;5.080;2022-12-07T19:41:33;8.30;;;4.53;;
66342;SDS011;53144;51.524;5.080;2022-12-07T19:44:06;6.10;;;3.85;;
66342;SDS011;53144;51.524;5.080;2022-12-07T19:46:34;6.57;;;3.10;;
66342;SDS011;53144;51.524;5.080;2022-12-07T19:51:26;6.68;;;2.83;;
66342;SDS011;53144;51.524;5.080;2022-12-07T19:54:00;5.75;;;2.25;;
66342;SDS011;53144;51.524;5.080;2022-12-07T19:56:27;9.93;;;3.20;;
66342;SDS011;53144;51.524;5.080;2022-12-07T19:58:54;6.50;;;3.00;;
66342;SDS011;53144;51.524;5.080;2022-12-07T20:01:20;7.90;;;3.08;;
66342;SDS011;53144;51.524;5.080;2022-12-07T20:03:46;5.13;;;3.00;;
66342;SDS011;53144;51.524;5.080;2022-12-07T20:06:13;6.53;;;3.35;;
66342;SDS011;53144;51.524;5.080;2022-12-07T20:08:46;6.88;;;3.00;;
66342;SDS011;53144;51.524;5.080;2022-12-07T20:11:12;8.05;;;3.75;;
66342;SDS011;53144;51.524;5.080;2022-12-07T20:13:57;9.73;;;3.58;;
66342;SDS011;53144;51.524;5.080;2022-12-07T20:16:26;6.60;;;3.38;;
66342;SDS011;53144;51.524;5.080;2022-12-07T20:18:58;5.57;;;3.45;;
66342;SDS011;53144;51.524;5.080;2022-12-07T20:21:24;9.10;;;4.07;;
66342;SDS011;53144;51.524;5.080;2022-12-07T20:23:52;8.02;;;3.83;;
66342;SDS011;53144;51.524;5.080;2022-12-07T20:26:18;9.50;;;3.50;;
66342;SDS011;53144;51.524;5.080;2022-12-07T20:28:44;5.50;;;3.47;;
66342;SDS011;53144;51.524;5.080;2022-12-07T20:31:14;7.82;;;3.50;;
66342;SDS011;53144;51.524;5.080;2022-12-07T20:33:40;6.35;;;3.38;;
66342;SDS011;53144;51.524;5.080;2022-12-07T20:36:10;4.80;;;3.22;;
66342;SDS011;53144;51.524;5.080;2022-12-07T20:41:02;11.15;;;4.28;;
66342;SDS011;53144;51.524;5.080;2022-12-07T20:43:52;8.63;;;4.18;;
66342;SDS011;53144;51.524;5.080;2022-12-07T20:46:26;8.85;;;5.13;;
66342;SDS011;53144;51.524;5.080;2022-12-07T20:48:52;9.80;;;4.65;;
66342;SDS011;53144;51.524;5.080;2022-12-07T20:51:20;6.82;;;3.72;;
66342;SDS011;53144;51.524;5.080;2022-12-07T20:53:46;6.15;;;3.72;;
66342;SDS011;53144;51.524;5.080;2022-12-07T20:58:57;8.73;;;5.15;;
66342;SDS011;53144;51.524;5.080;2022-12-07T21:01:37;6.50;;;4.22;;
66342;SDS011;53144;51.524;5.080;2022-12-07T21:04:03;15.02;;;8.05;;
66342;SDS011;53144;51.524;5.080;2022-12-07T21:06:36;12.65;;;6.18;;
66342;SDS011;53144;51.524;5.080;2022-12-07T21:09:05;7.53;;;4.18;;
66342;SDS011;53144;51.524;5.080;2022-12-07T21:11:37;6.00;;;3.45;;
66342;SDS011;53144;51.524;5.080;2022-12-07T21:14:03;9.57;;;4.30;;
66342;SDS011;53144;51.524;5.080;2022-12-07T21:16:29;5.80;;;4.15;;
66342;SDS011;53144;51.524;5.080;2022-12-07T21:18:56;7.57;;;3.53;;
66342;SDS011;53144;51.524;5.080;2022-12-07T21:21:26;5.85;;;4.18;;
66342;SDS011;53144;51.524;5.080;2022-12-07T21:23:52;8.00;;;3.53;;
66342;SDS011;53144;51.524;5.080;2022-12-07T21:26:21;7.30;;;2.70;;
66342;SDS011;53144;51.524;5.080;2022-12-07T21:28:47;5.85;;;2.80;;
66342;SDS011;53144;51.524;5.080;2022-12-07T21:31:13;4.13;;;3.33;;
66342;SDS011;53144;51.524;5.080;2022-12-07T21:36:06;6.70;;;4.70;;
66342;SDS011;53144;51.524;5.080;2022-12-07T21:38:35;8.50;;;4.53;;
66342;SDS011;53144;51.524;5.080;2022-12-07T21:41:10;3.90;;;2.80;;
66342;SDS011;53144;51.524;5.080;2022-12-07T21:43:47;8.38;;;3.70;;
66342;SDS011;53144;51.524;5.080;2022-12-07T21:48:39;9.00;;;3.92;;
66342;SDS011;53144;51.524;5.080;2022-12-07T21:51:06;6.88;;;4.28;;
66342;SDS011;53144;51.524;5.080;2022-12-07T21:53:34;8.05;;;5.00;;
66342;SDS011;53144;51.524;5.080;2022-12-07T21:58:58;7.75;;;6.07;;
66342;SDS011;53144;51.524;5.080;2022-12-07T22:01:29;11.07;;;6.75;;
66342;SDS011;53144;51.524;5.080;2022-12-07T22:03:59;11.18;;;6.80;;
66342;SDS011;53144;51.524;5.080;2022-12-07T22:06:25;10.48;;;7.20;;
66342;SDS011;53144;51.524;5.080;2022-12-07T22:08:51;12.10;;;8.10;;
66342;SDS011;53144;51.524;5.080;2022-12-07T22:11:17;11.52;;;8.23;;